createdAt,value
2022-08-01T00:00:08.766Z,19.90
2022-08-01T00:02:37.509Z,19.79
2022-08-01T00:05:06.855Z,19.85
2022-08-01T00:07:34.344Z,19.85
2022-08-01T00:10:02.116Z,20.06
2022-08-01T00:12:29.317Z,19.78
2022-08-01T00:14:56.436Z,19.98
2022-08-01T00:17:23.823Z,20.12
2022-08-01T00:19:50.958Z,20.28
2022-08-01T00:22:18.101Z,20.12
2022-08-01T00:24:45.482Z,20.22
2022-08-01T00:27:12.605Z,20.38
2022-08-01T00:30:09.642Z,20.38
2022-08-01T00:32:27.139Z,20.25
2022-08-01T00:34:54.267Z,19.92
2022-08-01T00:37:21.405Z,19.97
2022-08-01T00:39:48.804Z,20.13
2022-08-01T00:42:16.050Z,20.23
2022-08-01T00:44:43.183Z,20.16
2022-08-01T00:47:10.565Z,20.13
2022-08-01T00:49:37.801Z,20.12
2022-08-01T00:52:05.828Z,20.20
2022-08-01T00:54:33.520Z,20.15
2022-08-01T00:57:00.635Z,19.76
2022-08-01T00:59:27.743Z,19.98
2022-08-01T01:01:56.015Z,20.10
2022-08-01T01:04:23.359Z,20.15
2022-08-01T01:06:56.313Z,20.18
2022-08-01T01:09:23.672Z,20.22
2022-08-01T01:12:05.614Z,20.31
2022-08-01T01:14:38.861Z,20.18
2022-08-01T01:17:07.617Z,20.18
2022-08-01T01:19:36.506Z,20.25
2022-08-01T01:22:09.514Z,20.20
2022-08-01T01:24:46.488Z,20.06
2022-08-01T01:27:25.772Z,20.03
2022-08-01T01:30:00.539Z,19.82
2022-08-01T01:32:30.926Z,19.72
2022-08-01T01:34:58.673Z,20.04
2022-08-01T01:37:26.099Z,19.84
2022-08-01T01:39:54.077Z,19.89
2022-08-01T01:42:22.165Z,19.79
2022-08-01T01:44:49.335Z,20.14
2022-08-01T01:47:16.708Z,19.99
2022-08-01T01:49:45.156Z,19.78
2022-08-01T01:52:12.309Z,19.97
2022-08-01T01:54:41.764Z,19.65
2022-08-01T01:57:09.733Z,19.91
2022-08-01T01:59:37.354Z,19.83
2022-08-01T02:02:06.428Z,19.84
2022-08-01T02:04:35.940Z,19.90
2022-08-01T02:07:03.160Z,19.98
2022-08-01T02:09:30.268Z,19.76
2022-08-01T02:12:08.442Z,19.68
2022-08-01T02:14:36.547Z,19.81
2022-08-01T02:17:05.079Z,19.67
2022-08-01T02:19:37.893Z,19.80
2022-08-01T02:22:07.543Z,19.78
2022-08-01T02:24:36.645Z,19.66
2022-08-01T02:27:06.165Z,19.62
2022-08-01T02:29:44.065Z,19.53
2022-08-01T02:32:13.018Z,19.59
2022-08-01T02:34:40.378Z,19.44
2022-08-01T02:37:07.632Z,19.77
2022-08-01T02:39:35.059Z,19.48
2022-08-01T02:42:04.749Z,19.41
2022-08-01T02:44:32.652Z,19.36
2022-08-01T02:47:05.782Z,19.18
2022-08-01T02:49:34.496Z,19.34
2022-08-01T02:52:02.808Z,19.41
2022-08-01T02:54:30.278Z,19.42
2022-08-01T02:56:58.593Z,18.56
2022-08-01T02:59:26.757Z,18.19
2022-08-01T03:01:56.898Z,18.17
2022-08-01T03:04:24.532Z,18.01
2022-08-01T03:06:52.154Z,17.97
2022-08-01T03:09:19.331Z,17.68
2022-08-01T03:11:46.755Z,17.73
2022-08-01T03:14:13.905Z,18.52
2022-08-01T03:16:41.249Z,17.48
2022-08-01T03:19:09.294Z,17.72
2022-08-01T03:21:36.499Z,17.67
2022-08-01T03:24:03.713Z,17.59
2022-08-01T03:26:31.771Z,18.46
2022-08-01T03:29:00.222Z,17.63
2022-08-01T03:31:27.329Z,17.88
2022-08-01T03:33:54.704Z,17.82
2022-08-01T03:36:27.569Z,17.68
2022-08-01T03:38:56.005Z,18.04
2022-08-01T03:41:23.178Z,18.02
2022-08-01T03:43:55.908Z,18.77
2022-08-01T03:46:27.850Z,18.73
2022-08-01T03:48:55.374Z,18.35
2022-08-01T03:51:22.513Z,18.32
2022-08-01T03:53:49.984Z,18.66
2022-08-01T03:56:17.793Z,18.22
2022-08-01T03:58:44.905Z,18.29
2022-08-01T04:01:18.085Z,18.27
2022-08-01T04:03:45.553Z,18.70
2022-08-01T04:06:14.821Z,18.94
2022-08-01T04:08:42.284Z,18.99
2022-08-01T04:11:09.851Z,18.91
2022-08-01T04:13:38.555Z,19.04
2022-08-01T04:16:05.896Z,19.19
2022-08-01T04:18:33.309Z,19.44
2022-08-01T04:21:00.514Z,19.12
2022-08-01T04:23:28.097Z,18.78
2022-08-01T04:25:55.572Z,19.41
2022-08-01T04:28:22.681Z,18.22
2022-08-01T04:30:49.904Z,18.35
2022-08-01T04:33:17.337Z,18.59
2022-08-01T04:36:02.163Z,19.13
2022-08-01T04:38:31.921Z,18.59
2022-08-01T04:40:59.073Z,19.18
2022-08-01T04:43:35.797Z,19.57
2022-08-01T04:46:04.711Z,19.85
2022-08-01T04:48:32.867Z,19.43
2022-08-01T04:51:00.238Z,19.73
2022-08-01T04:53:27.699Z,19.91
2022-08-01T04:55:54.859Z,20.03
2022-08-01T04:58:22.248Z,20.29
2022-08-01T05:00:49.638Z,21.04
2022-08-01T05:03:16.794Z,21.18
2022-08-01T05:05:44.222Z,21.42
2022-08-01T05:08:11.368Z,21.04
2022-08-01T05:10:38.502Z,21.36
2022-08-01T05:13:07.440Z,22.38
2022-08-01T05:15:35.485Z,23.83
2022-08-01T05:18:02.634Z,25.76
2022-08-01T05:20:30.030Z,26.04
2022-08-01T05:22:58.164Z,27.38
2022-08-01T05:25:31.026Z,28.80
2022-08-01T05:28:12.661Z,27.42
2022-08-01T05:30:46.329Z,28.75
2022-08-01T05:33:13.715Z,30.24
2022-08-01T05:35:47.662Z,29.83
2022-08-01T05:38:15.861Z,30.55
2022-08-01T05:40:42.976Z,31.91
2022-08-01T05:43:10.083Z,33.86
2022-08-01T05:45:37.915Z,34.78
2022-08-01T05:48:05.158Z,35.38
2022-08-01T05:50:32.513Z,35.60
2022-08-01T05:52:59.902Z,35.97
2022-08-01T05:55:27.022Z,33.60
2022-08-01T05:57:54.180Z,32.98
2022-08-01T06:00:21.602Z,31.83
2022-08-01T06:02:48.972Z,30.46
2022-08-01T06:05:16.383Z,29.77
2022-08-01T06:07:43.491Z,29.53
2022-08-01T06:10:10.967Z,31.45
2022-08-01T06:12:38.109Z,31.10
2022-08-01T06:15:05.684Z,33.51
2022-08-01T06:17:33.085Z,35.06
2022-08-01T06:20:00.746Z,34.16
2022-08-01T06:22:27.901Z,35.88
2022-08-01T06:24:55.287Z,33.57
2022-08-01T06:27:22.899Z,32.91
2022-08-01T06:29:50.364Z,33.59
2022-08-01T06:32:26.424Z,33.21
2022-08-01T06:34:54.673Z,35.53
2022-08-01T06:37:22.590Z,35.15
2022-08-01T06:39:50.624Z,34.42
2022-08-01T06:42:18.409Z,34.41
2022-08-01T06:44:46.193Z,35.52
2022-08-01T06:47:13.456Z,33.18
2022-08-01T06:49:40.574Z,35.33
2022-08-01T06:52:08.568Z,34.96
2022-08-01T06:54:35.995Z,36.63
2022-08-01T06:57:05.758Z,37.15
2022-08-01T06:59:33.175Z,33.91
2022-08-01T07:02:01.991Z,32.54
2022-08-01T07:04:29.103Z,33.42
2022-08-01T07:06:56.568Z,34.96
2022-08-01T07:09:23.686Z,33.69
2022-08-01T07:11:51.629Z,33.21
2022-08-01T07:14:19.324Z,32.43
2022-08-01T07:16:46.420Z,34.43
2022-08-01T07:19:13.654Z,36.61
2022-08-01T07:21:41.407Z,36.59
2022-08-01T07:24:13.247Z,35.55
2022-08-01T07:26:47.730Z,35.52
2022-08-01T07:29:19.913Z,35.97
2022-08-01T07:31:47.299Z,34.86
2022-08-01T07:34:14.461Z,36.43
2022-08-01T07:36:41.583Z,34.09
2022-08-01T07:39:08.937Z,31.81
2022-08-01T07:41:52.857Z,32.84
2022-08-01T07:44:23.425Z,31.90
2022-08-01T07:46:50.620Z,32.46
2022-08-01T07:49:17.762Z,29.86
2022-08-01T07:52:04.047Z,30.91
2022-08-01T07:54:33.405Z,30.61
2022-08-01T07:57:02.104Z,29.43
2022-08-01T07:59:29.247Z,29.94
2022-08-01T08:01:56.416Z,29.26
2022-08-01T08:04:23.908Z,29.57
2022-08-01T08:06:51.130Z,28.04
2022-08-01T08:09:18.261Z,27.54
2022-08-01T08:11:47.859Z,28.26
2022-08-01T08:14:15.754Z,27.20
2022-08-01T08:16:43.176Z,27.28
2022-08-01T08:19:10.685Z,27.06
2022-08-01T08:21:38.830Z,27.20
2022-08-01T08:24:26.220Z,27.37
2022-08-01T08:26:55.625Z,27.34
2022-08-01T08:29:23.081Z,27.11
2022-08-01T08:31:51.281Z,26.81
2022-08-01T08:34:20.425Z,26.61
2022-08-01T08:36:48.272Z,26.18
2022-08-01T08:39:17.559Z,26.53
2022-08-01T08:41:49.607Z,26.20
2022-08-01T08:44:17.401Z,26.45
2022-08-01T08:46:48.284Z,26.06
2022-08-01T08:49:17.517Z,26.17
2022-08-01T08:51:44.877Z,26.21
2022-08-01T08:54:12.211Z,25.74
2022-08-01T08:56:39.635Z,26.20
2022-08-01T08:59:06.762Z,25.90
2022-08-01T09:01:34.488Z,26.31
2022-08-01T09:04:05.046Z,25.78
2022-08-01T09:06:32.570Z,26.04
2022-08-01T09:08:59.787Z,26.41
2022-08-01T09:11:27.206Z,26.43
2022-08-01T09:14:12.970Z,26.69
2022-08-01T09:16:48.596Z,27.22
2022-08-01T09:19:40.551Z,27.77
2022-08-01T09:22:06.043Z,27.64
2022-08-01T09:24:33.368Z,26.93
2022-08-01T09:27:00.601Z,27.30
2022-08-01T09:29:38.262Z,27.51
2022-08-01T09:32:08.725Z,27.52
2022-08-01T09:34:43.530Z,27.42
2022-08-01T09:37:10.941Z,27.67
2022-08-01T09:39:44.065Z,27.27
2022-08-01T09:42:21.284Z,27.20
2022-08-01T09:44:56.490Z,28.80
2022-08-01T09:47:25.644Z,30.37
2022-08-01T09:49:57.376Z,29.67
2022-08-01T09:52:29.084Z,30.54
2022-08-01T09:55:00.606Z,30.76
2022-08-01T09:57:28.161Z,31.11
2022-08-01T09:59:58.757Z,31.71
2022-08-01T10:02:30.085Z,31.98
2022-08-01T10:05:03.321Z,31.13
2022-08-01T10:07:43.158Z,30.23
2022-08-01T10:10:12.541Z,29.92
2022-08-01T10:12:45.448Z,30.34
2022-08-01T10:15:15.017Z,29.18
2022-08-01T10:17:50.286Z,29.76
2022-08-01T10:20:28.873Z,29.75
2022-08-01T10:23:02.873Z,30.23
2022-08-01T10:25:43.036Z,30.78
2022-08-01T10:28:12.790Z,29.94
2022-08-01T10:30:40.884Z,29.78
2022-08-01T10:33:11.332Z,29.68
2022-08-01T10:35:58.697Z,29.79
2022-08-01T10:38:28.419Z,30.18
2022-08-01T10:40:55.957Z,30.78
2022-08-01T10:43:23.556Z,30.60
2022-08-01T10:45:51.040Z,30.68
2022-08-01T10:48:32.439Z,29.90
2022-08-01T10:51:01.105Z,30.63
2022-08-01T10:53:31.458Z,29.72
2022-08-01T10:56:12.737Z,29.70
2022-08-01T10:58:44.387Z,30.00
2022-08-01T11:01:15.181Z,30.01
2022-08-01T11:03:57.065Z,29.11
2022-08-01T11:06:26.658Z,28.61
2022-08-01T11:08:54.901Z,29.27
2022-08-01T11:11:22.527Z,29.15
2022-08-01T11:14:12.748Z,29.48
2022-08-01T11:16:40.629Z,29.73
2022-08-01T11:19:09.421Z,29.52
2022-08-01T11:22:06.016Z,29.33
2022-08-01T11:24:50.654Z,29.79
2022-08-01T11:27:23.841Z,29.63
2022-08-01T11:30:09.399Z,30.35
2022-08-01T11:33:10.509Z,29.49
2022-08-01T11:35:37.660Z,29.26
2022-08-01T11:38:30.981Z,29.21
2022-08-01T11:41:14.093Z,29.41
2022-08-01T11:43:59.693Z,30.20
2022-08-01T11:46:45.927Z,29.98
2022-08-01T11:49:29.846Z,28.96
2022-08-01T11:51:59.365Z,29.32
2022-08-01T11:54:35.279Z,29.07
2022-08-01T11:57:07.237Z,29.29
2022-08-01T11:59:38.343Z,29.34
2022-08-01T12:02:16.019Z,29.04
2022-08-01T12:05:02.147Z,28.86
2022-08-01T12:07:29.960Z,28.24
2022-08-01T12:09:58.344Z,28.03
2022-08-01T12:12:25.549Z,28.39
2022-08-01T12:14:56.325Z,28.32
2022-08-01T12:17:35.776Z,28.20
2022-08-01T12:20:03.843Z,28.40
2022-08-01T12:22:31.321Z,28.50
2022-08-01T12:25:05.599Z,28.38
2022-08-01T12:27:32.976Z,28.44
2022-08-01T12:30:00.186Z,28.13
2022-08-01T12:32:33.809Z,27.93
2022-08-01T12:35:08.552Z,28.28
2022-08-01T12:37:45.276Z,28.33
2022-08-01T12:40:19.240Z,28.40
2022-08-01T12:42:47.466Z,28.75
2022-08-01T12:45:15.669Z,28.56
2022-08-01T12:47:42.779Z,28.64
2022-08-01T12:50:16.469Z,28.99
2022-08-01T12:52:43.912Z,28.88
2022-08-01T12:55:14.980Z,28.30
2022-08-01T12:57:42.770Z,28.20
2022-08-01T13:00:11.430Z,28.55
2022-08-01T13:02:39.827Z,28.63
2022-08-01T13:05:07.212Z,28.68
2022-08-01T13:07:45.182Z,28.31
2022-08-01T13:10:12.891Z,28.47
2022-08-01T13:12:40.642Z,28.45
2022-08-01T13:15:17.960Z,28.76
2022-08-01T13:17:45.346Z,28.42
2022-08-01T13:20:21.964Z,28.00
2022-08-01T13:22:49.361Z,28.45
2022-08-01T13:25:20.828Z,28.23
2022-08-01T13:27:53.972Z,27.90
2022-08-01T13:30:22.892Z,27.78
2022-08-01T13:32:59.470Z,28.18
2022-08-01T13:35:26.687Z,28.03
2022-08-01T13:37:54.167Z,27.84
2022-08-01T13:40:27.614Z,28.16
2022-08-01T13:42:56.577Z,27.84
2022-08-01T13:45:23.952Z,28.04
2022-08-01T13:48:12.341Z,27.87
2022-08-01T13:50:40.632Z,27.98
2022-08-01T13:53:08.277Z,28.12
2022-08-01T13:55:35.734Z,28.22
2022-08-01T13:58:03.786Z,28.56
2022-08-01T14:00:31.176Z,28.79
2022-08-01T14:02:58.525Z,28.31
2022-08-01T14:05:25.645Z,28.22
2022-08-01T14:07:56.546Z,28.14
2022-08-01T14:10:24.536Z,28.60
2022-08-01T14:12:51.707Z,28.63
2022-08-01T14:15:36.936Z,29.10
2022-08-01T14:18:06.825Z,29.17
2022-08-01T14:20:34.642Z,28.74
2022-08-01T14:23:01.816Z,28.75
2022-08-01T14:26:03.477Z,28.68
2022-08-01T14:28:16.311Z,28.98
2022-08-01T14:30:43.727Z,28.64
2022-08-01T14:33:11.093Z,28.48
2022-08-01T14:36:01.341Z,28.39
2022-08-01T14:38:31.664Z,28.48
2022-08-01T14:41:00.756Z,28.53
2022-08-01T14:43:32.902Z,28.77
2022-08-01T14:46:01.111Z,28.92
2022-08-01T14:48:28.571Z,29.02
2022-08-01T14:50:57.858Z,28.65
2022-08-01T14:53:24.985Z,28.89
2022-08-01T14:55:52.361Z,28.75
2022-08-01T14:58:19.730Z,28.93
2022-08-01T15:00:46.968Z,28.71
2022-08-01T15:03:14.415Z,28.82
2022-08-01T15:05:41.558Z,28.63
2022-08-01T15:08:08.680Z,28.20
2022-08-01T15:10:36.099Z,28.22
2022-08-01T15:13:03.239Z,28.74
2022-08-01T15:15:30.417Z,28.81
2022-08-01T15:17:57.852Z,28.45
2022-08-01T15:20:25.547Z,28.17
2022-08-01T15:22:53.783Z,28.46
2022-08-01T15:25:21.225Z,28.07
2022-08-01T15:27:48.467Z,28.48
2022-08-01T15:30:15.609Z,28.14
2022-08-01T15:32:43.002Z,28.42
2022-08-01T15:35:11.234Z,28.42
2022-08-01T15:37:42.600Z,27.78
2022-08-01T15:40:11.194Z,28.07
2022-08-01T15:42:38.333Z,28.40
2022-08-01T15:45:05.624Z,28.49
2022-08-01T15:47:33.321Z,28.58
2022-08-01T15:50:02.367Z,28.69
2022-08-01T15:52:30.935Z,28.40
2022-08-01T15:54:59.392Z,28.59
2022-08-01T15:57:26.598Z,28.36
2022-08-01T15:59:53.704Z,28.81
2022-08-01T16:02:21.132Z,29.25
2022-08-01T16:04:48.624Z,28.45
2022-08-01T16:07:15.727Z,28.81
2022-08-01T16:09:42.868Z,28.76
2022-08-01T16:12:10.393Z,28.54
2022-08-01T16:14:37.691Z,28.66
2022-08-01T16:17:04.803Z,28.22
2022-08-01T16:19:32.246Z,28.39
2022-08-01T16:21:59.365Z,28.32
2022-08-01T16:24:29.166Z,28.97
2022-08-01T16:26:56.708Z,28.26
2022-08-01T16:29:24.005Z,28.40
2022-08-01T16:32:23.889Z,28.10
2022-08-01T16:34:38.680Z,27.96
2022-08-01T16:37:11.660Z,28.24
2022-08-01T16:39:39.032Z,28.68
2022-08-01T16:42:06.850Z,28.45
2022-08-01T16:44:34.635Z,28.34
2022-08-01T16:47:02.560Z,28.56
2022-08-01T16:49:29.830Z,28.04
2022-08-01T16:51:57.102Z,27.86
2022-08-01T16:54:26.140Z,28.00
2022-08-01T16:56:54.008Z,27.70
2022-08-01T16:59:21.217Z,27.44
2022-08-01T17:02:00.445Z,27.99
2022-08-01T17:04:29.681Z,27.89
2022-08-01T17:06:57.056Z,28.34
2022-08-01T17:09:24.213Z,28.44
2022-08-01T17:11:51.488Z,27.69
2022-08-01T17:14:18.921Z,27.67
2022-08-01T17:16:46.559Z,28.03
2022-08-01T17:19:14.593Z,27.69
2022-08-01T17:21:42.500Z,27.48
2022-08-01T17:24:09.630Z,27.73
2022-08-01T17:26:36.763Z,27.42
2022-08-01T17:29:04.148Z,27.50
2022-08-01T17:31:31.308Z,27.54
2022-08-01T17:33:58.458Z,27.82
2022-08-01T17:36:25.902Z,28.14
2022-08-01T17:38:53.036Z,27.80
2022-08-01T17:41:20.195Z,27.49
2022-08-01T17:43:48.081Z,27.96
2022-08-01T17:46:15.272Z,27.42
2022-08-01T17:48:44.306Z,27.79
2022-08-01T17:51:11.957Z,27.45
2022-08-01T17:53:55.698Z,27.55
2022-08-01T17:56:25.069Z,27.42
2022-08-01T17:58:52.464Z,27.61
2022-08-01T18:01:19.919Z,28.17
2022-08-01T18:03:47.955Z,28.10
2022-08-01T18:06:17.388Z,27.90
2022-08-01T18:08:46.968Z,28.08
2022-08-01T18:11:15.463Z,28.25
2022-08-01T18:13:42.723Z,28.24
2022-08-01T18:16:11.217Z,28.32
2022-08-01T18:18:39.126Z,28.08
2022-08-01T18:21:06.416Z,28.15
2022-08-01T18:23:33.777Z,28.17
2022-08-01T18:26:02.320Z,27.95
2022-08-01T18:28:34.204Z,28.00
2022-08-01T18:31:04.198Z,27.45
2022-08-01T18:33:31.342Z,27.73
2022-08-01T18:36:03.844Z,27.22
2022-08-01T18:38:33.103Z,27.29
2022-08-01T18:41:00.865Z,26.96
2022-08-01T18:43:28.093Z,26.59
2022-08-01T18:45:57.477Z,26.97
2022-08-01T18:48:24.713Z,26.96
2022-08-01T18:50:53.858Z,27.05
2022-08-01T18:53:23.733Z,27.21
2022-08-01T18:55:50.954Z,27.07
2022-08-01T18:58:18.517Z,26.98
2022-08-01T19:00:45.983Z,27.16
2022-08-01T19:03:13.784Z,27.13
2022-08-01T19:05:41.975Z,27.14
2022-08-01T19:08:09.460Z,27.14
2022-08-01T19:10:36.724Z,27.29
2022-08-01T19:13:03.849Z,27.27
2022-08-01T19:15:31.264Z,27.27
2022-08-01T19:17:58.410Z,26.72
2022-08-01T19:20:25.701Z,26.99
2022-08-01T19:22:53.090Z,26.97
2022-08-01T19:25:20.222Z,27.15
2022-08-01T19:27:48.940Z,27.05
2022-08-01T19:30:16.901Z,26.81
2022-08-01T19:32:44.694Z,26.96
2022-08-01T19:35:12.559Z,26.88
2022-08-01T19:37:47.661Z,26.75
2022-08-01T19:40:26.037Z,26.91
2022-08-01T19:42:55.980Z,26.89
2022-08-01T19:45:23.179Z,26.58
2022-08-01T19:47:56.281Z,26.40
2022-08-01T19:50:28.158Z,26.73
2022-08-01T19:52:55.678Z,26.71
2022-08-01T19:55:25.610Z,26.64
2022-08-01T20:00:40.480Z,26.65
2022-08-01T20:03:07.990Z,26.51
2022-08-01T20:05:36.462Z,26.74
2022-08-01T20:08:03.687Z,26.52
2022-08-01T20:10:31.778Z,25.63
2022-08-01T20:12:58.925Z,26.32
2022-08-01T20:15:26.045Z,25.93
2022-08-01T20:17:53.432Z,26.10
2022-08-01T20:20:20.592Z,26.42
2022-08-01T20:22:47.714Z,26.52
2022-08-01T20:25:15.108Z,26.11
2022-08-01T20:27:43.201Z,26.47
2022-08-01T20:30:10.516Z,26.45
2022-08-01T20:32:40.131Z,26.12
2022-08-01T20:35:08.419Z,26.07
2022-08-01T20:38:06.040Z,26.39
2022-08-01T20:40:27.129Z,26.30
2022-08-01T20:42:54.266Z,26.29
2022-08-01T20:45:21.804Z,26.10
2022-08-01T20:47:49.713Z,25.74
2022-08-01T20:50:54.102Z,26.09
2022-08-01T20:53:26.101Z,26.12
2022-08-01T20:56:13.482Z,25.52
2022-08-01T20:58:44.646Z,26.00
2022-08-01T21:01:13.089Z,25.96
2022-08-01T21:03:42.890Z,26.08
2022-08-01T21:06:16.120Z,25.99
2022-08-01T21:08:44.493Z,25.92
2022-08-01T21:11:13.189Z,26.04
2022-08-01T21:13:43.634Z,25.94
2022-08-01T21:16:23.882Z,26.18
2022-08-01T21:19:18.185Z,26.26
2022-08-01T21:21:44.033Z,26.25
2022-08-01T21:24:15.689Z,26.34
2022-08-01T21:26:43.241Z,26.11
2022-08-01T21:29:10.402Z,26.17
2022-08-01T21:31:40.443Z,26.11
2022-08-01T21:34:08.702Z,24.77
2022-08-01T21:36:35.941Z,25.47
2022-08-01T21:39:04.226Z,25.90
2022-08-01T21:41:56.500Z,25.76
2022-08-01T21:44:18.717Z,25.67
2022-08-01T21:46:48.142Z,25.63
2022-08-01T21:49:15.360Z,25.95
2022-08-01T21:51:43.198Z,26.17
2022-08-01T21:54:31.221Z,26.10
2022-08-01T21:57:18.891Z,26.16
2022-08-01T22:00:07.738Z,26.19
2022-08-01T22:02:36.670Z,26.23
2022-08-01T22:05:07.704Z,25.87
2022-08-01T22:07:39.342Z,25.99
2022-08-01T22:10:06.680Z,26.05
2022-08-01T22:12:34.370Z,25.98
2022-08-01T22:15:05.536Z,26.05
2022-08-01T22:17:33.287Z,26.15
2022-08-01T22:20:00.517Z,25.98
2022-08-01T22:22:32.397Z,26.07
2022-08-01T22:25:15.649Z,25.79
2022-08-01T22:28:07.749Z,26.04
2022-08-01T22:30:31.025Z,26.01
2022-08-01T22:33:07.796Z,26.06
2022-08-01T22:35:45.083Z,24.89
2022-08-01T22:38:12.459Z,25.17
2022-08-01T22:40:40.284Z,24.75
2022-08-01T22:43:10.870Z,24.94
2022-08-01T22:46:04.605Z,24.72
2022-08-01T22:48:34.671Z,25.16
2022-08-01T22:51:05.683Z,24.99
2022-08-01T22:53:42.618Z,25.39
2022-08-01T22:56:10.998Z,25.50
2022-08-01T22:58:39.207Z,25.59
2022-08-01T23:15:58.721Z,24.93
2022-08-01T23:18:26.186Z,24.91
2022-08-01T23:20:53.299Z,25.13
2022-08-01T23:23:30.704Z,24.55
2022-08-01T23:25:59.183Z,25.03
2022-08-01T23:28:26.421Z,24.92
2022-08-01T23:30:53.804Z,24.99
2022-08-01T23:33:21.184Z,24.79
2022-08-01T23:35:48.319Z,24.97
2022-08-01T23:38:16.076Z,25.11
2022-08-01T23:40:43.419Z,24.95
2022-08-01T23:43:16.976Z,24.66
2022-08-01T23:46:04.475Z,24.55
2022-08-01T23:48:35.551Z,24.41
2022-08-01T23:51:04.255Z,24.75
2022-08-01T23:53:31.638Z,24.66
2022-08-01T23:55:59.037Z,24.75
2022-08-01T23:58:28.491Z,24.73
